createdAt,value
2022-08-03T00:01:27.081Z,19.80
2022-08-03T00:03:54.510Z,19.80
2022-08-03T00:06:21.482Z,19.70
2022-08-03T00:08:48.462Z,19.90
2022-08-03T00:11:15.414Z,19.80
2022-08-03T00:13:42.412Z,19.70
2022-08-03T00:16:10.671Z,19.70
2022-08-03T00:18:37.925Z,19.60
2022-08-03T00:21:05.468Z,19.60
2022-08-03T00:23:51.716Z,19.50
2022-08-03T00:26:22.906Z,19.40
2022-08-03T00:28:50.675Z,19.50
2022-08-03T00:31:20.392Z,19.40
2022-08-03T00:34:04.807Z,19.40
2022-08-03T00:36:33.274Z,19.30
2022-08-03T00:39:00.273Z,19.20
2022-08-03T00:41:27.341Z,19.20
2022-08-03T00:43:54.240Z,19.10
2022-08-03T00:46:22.477Z,19.20
2022-08-03T00:48:50.912Z,19.10
2022-08-03T00:51:19.705Z,19.10
2022-08-03T00:53:46.685Z,19.00
2022-08-03T00:56:15.323Z,19.00
2022-08-03T00:58:44.854Z,19.00
2022-08-03T01:01:12.676Z,18.90
2022-08-03T01:03:40.512Z,18.90
2022-08-03T01:06:23.594Z,18.90
2022-08-03T01:09:21.043Z,18.90
2022-08-03T01:12:01.092Z,18.70
2022-08-03T01:14:41.906Z,18.70
2022-08-03T01:17:13.547Z,18.70
2022-08-03T01:19:49.676Z,18.70
2022-08-03T01:22:40.776Z,18.60
2022-08-03T01:25:36.409Z,18.60
2022-08-03T01:28:42.051Z,18.60
2022-08-03T01:31:12.179Z,18.60
2022-08-03T01:33:43.054Z,18.60
2022-08-03T01:36:36.509Z,18.50
2022-08-03T01:39:09.411Z,18.50
2022-08-03T01:41:46.510Z,18.50
2022-08-03T01:44:29.640Z,18.40
2022-08-03T01:47:02.565Z,18.40
2022-08-03T01:49:32.237Z,18.40
2022-08-03T01:52:04.896Z,18.30
2022-08-03T01:54:38.272Z,18.30
2022-08-03T01:57:05.902Z,18.30
2022-08-03T01:59:35.615Z,18.30
2022-08-03T02:02:15.511Z,18.30
2022-08-03T02:04:56.520Z,18.20
2022-08-03T02:07:25.085Z,18.20
2022-08-03T02:09:53.912Z,18.10
2022-08-03T02:12:22.297Z,18.10
2022-08-03T02:14:50.179Z,18.10
2022-08-03T02:17:18.025Z,18.10
2022-08-03T02:20:06.528Z,18.00
2022-08-03T02:22:34.639Z,18.00
2022-08-03T02:25:02.156Z,18.00
2022-08-03T02:27:32.488Z,18.00
2022-08-03T02:30:05.367Z,17.90
2022-08-03T02:32:38.840Z,17.90
2022-08-03T02:35:09.462Z,17.90
2022-08-03T02:37:42.680Z,17.90
2022-08-03T02:40:13.832Z,17.90
2022-08-03T02:42:45.255Z,17.90
2022-08-03T02:45:13.984Z,17.80
2022-08-03T02:47:53.478Z,17.80
2022-08-03T02:50:23.305Z,17.80
2022-08-03T02:52:52.344Z,17.80
2022-08-03T02:55:22.472Z,17.70
2022-08-03T02:57:50.299Z,17.70
2022-08-03T03:00:27.418Z,17.70
2022-08-03T03:02:58.499Z,17.60
2022-08-03T03:05:52.907Z,17.60
2022-08-03T03:08:18.063Z,17.60
2022-08-03T03:10:46.626Z,17.70
2022-08-03T03:13:16.038Z,17.70
2022-08-03T03:15:44.953Z,17.70
2022-08-03T03:18:16.757Z,17.70
2022-08-03T03:20:46.535Z,17.60
2022-08-03T03:23:14.191Z,17.70
2022-08-03T03:25:41.655Z,17.60
2022-08-03T03:28:10.491Z,17.60
2022-08-03T03:30:37.555Z,17.60
2022-08-03T03:33:04.589Z,17.50
2022-08-03T03:35:38.766Z,17.50
2022-08-03T03:38:06.806Z,17.50
2022-08-03T03:40:35.920Z,17.50
2022-08-03T03:43:03.802Z,17.40
2022-08-03T03:45:31.495Z,17.40
2022-08-03T03:48:00.664Z,17.40
2022-08-03T03:50:28.324Z,17.30
2022-08-03T03:52:55.208Z,17.30
2022-08-03T03:55:22.380Z,17.30
2022-08-03T03:57:49.324Z,17.20
2022-08-03T04:00:18.110Z,17.20
2022-08-03T04:02:45.941Z,17.20
2022-08-03T04:05:32.006Z,17.20
2022-08-03T04:08:22.108Z,17.20
2022-08-03T04:11:01.063Z,17.20
2022-08-03T04:13:35.360Z,17.20
2022-08-03T04:16:04.228Z,17.10
2022-08-03T04:18:34.345Z,17.20
2022-08-03T04:21:05.398Z,17.20
2022-08-03T04:23:35.854Z,17.20
2022-08-03T04:26:04.403Z,17.20
2022-08-03T04:28:34.322Z,17.20
2022-08-03T04:31:03.391Z,17.20
2022-08-03T04:33:33.429Z,17.20
2022-08-03T04:36:06.357Z,17.30
2022-08-03T04:38:38.982Z,17.40
2022-08-03T04:41:08.030Z,17.50
2022-08-03T04:43:35.241Z,17.70
2022-08-03T04:46:02.964Z,17.90
2022-08-03T04:48:30.268Z,18.10
2022-08-03T04:50:57.578Z,18.10
2022-08-03T04:53:24.536Z,18.10
2022-08-03T04:55:51.466Z,18.10
2022-08-03T04:58:18.449Z,18.10
2022-08-03T05:00:45.709Z,18.20
2022-08-03T05:03:23.987Z,18.20
2022-08-03T05:05:53.364Z,18.40
2022-08-03T05:08:29.220Z,18.60
2022-08-03T05:10:59.307Z,18.80
2022-08-03T05:13:26.676Z,19.00
2022-08-03T05:15:53.911Z,19.00
2022-08-03T05:18:20.948Z,19.00
2022-08-03T05:20:47.904Z,19.10
2022-08-03T05:23:14.789Z,19.10
2022-08-03T05:25:49.713Z,19.10
2022-08-03T05:28:17.288Z,19.10
2022-08-03T05:30:44.636Z,19.20
2022-08-03T05:33:11.792Z,19.20
2022-08-03T05:35:57.206Z,19.30
2022-08-03T05:38:28.782Z,19.40
2022-08-03T05:41:21.961Z,19.70
2022-08-03T05:43:48.316Z,19.80
2022-08-03T05:46:15.462Z,20.00
2022-08-03T05:48:43.157Z,20.00
2022-08-03T05:51:11.959Z,20.10
2022-08-03T05:53:39.737Z,20.20
2022-08-03T05:56:14.330Z,20.20
2022-08-03T05:58:47.122Z,20.30
2022-08-03T06:01:17.821Z,20.30
2022-08-03T06:03:48.842Z,20.40
2022-08-03T06:06:17.068Z,20.40
2022-08-03T06:08:45.423Z,20.40
2022-08-03T06:11:13.028Z,20.30
2022-08-03T06:13:40.735Z,20.40
2022-08-03T06:16:08.059Z,20.50
2022-08-03T06:18:36.176Z,20.50
2022-08-03T06:21:11.047Z,20.70
2022-08-03T06:23:53.341Z,20.70
2022-08-03T06:26:24.427Z,20.90
2022-08-03T06:28:53.928Z,20.90
2022-08-03T06:31:24.054Z,21.10
2022-08-03T06:34:33.306Z,21.20
2022-08-03T06:36:39.034Z,21.30
2022-08-03T06:39:06.334Z,21.30
2022-08-03T06:41:37.424Z,21.40
2022-08-03T06:44:05.416Z,21.50
2022-08-03T06:46:32.363Z,21.60
2022-08-03T06:48:59.238Z,21.70
2022-08-03T06:52:04.441Z,21.80
2022-08-03T06:54:13.582Z,22.00
2022-08-03T06:56:40.435Z,22.10
2022-08-03T06:59:07.429Z,22.20
2022-08-03T07:01:34.403Z,22.30
2022-08-03T07:04:01.560Z,22.40
2022-08-03T07:06:28.715Z,22.50
2022-08-03T07:08:59.545Z,22.60
2022-08-03T07:11:26.848Z,22.80
2022-08-03T07:13:53.809Z,22.90
2022-08-03T07:16:20.664Z,23.00
2022-08-03T07:18:47.545Z,23.10
2022-08-03T07:21:16.172Z,23.40
2022-08-03T07:23:43.091Z,23.50
2022-08-03T07:26:10.023Z,23.70
2022-08-03T07:28:37.678Z,23.80
2022-08-03T07:31:04.532Z,24.00
2022-08-03T07:33:31.582Z,24.20
2022-08-03T07:35:58.642Z,24.40
2022-08-03T07:38:25.547Z,24.50
2022-08-03T07:40:53.436Z,24.50
2022-08-03T07:43:20.685Z,24.70
2022-08-03T07:45:47.587Z,24.80
2022-08-03T07:48:14.779Z,25.00
2022-08-03T07:50:41.873Z,25.40
2022-08-03T07:53:09.043Z,25.60
2022-08-03T07:55:36.169Z,25.80
2022-08-03T07:58:06.636Z,26.00
2022-08-03T08:00:34.124Z,26.20
2022-08-03T08:03:01.442Z,26.40
2022-08-03T08:05:29.626Z,26.40
2022-08-03T08:07:56.659Z,26.50
2022-08-03T08:10:23.779Z,26.70
2022-08-03T08:12:50.654Z,27.00
2022-08-03T08:15:17.550Z,27.20
2022-08-03T08:17:47.154Z,27.30
2022-08-03T08:20:27.772Z,27.40
2022-08-03T08:23:02.020Z,27.50
2022-08-03T08:25:31.200Z,27.70
2022-08-03T08:28:31.033Z,27.90
2022-08-03T08:30:46.600Z,28.30
2022-08-03T08:33:23.481Z,28.40
2022-08-03T08:35:53.108Z,28.70
2022-08-03T08:38:20.299Z,29.00
2022-08-03T08:40:49.040Z,29.20
2022-08-03T08:43:16.074Z,29.50
2022-08-03T08:45:43.697Z,29.60
2022-08-03T08:48:13.152Z,29.70
2022-08-03T08:50:40.108Z,29.90
2022-08-03T08:53:09.573Z,30.10
2022-08-03T08:55:58.090Z,30.30
2022-08-03T08:58:26.113Z,30.50
2022-08-03T09:00:53.104Z,30.70
2022-08-03T09:03:26.168Z,31.10
2022-08-03T09:05:57.818Z,31.30
2022-08-03T09:08:25.005Z,31.30
2022-08-03T09:10:52.199Z,31.40
2022-08-03T09:13:19.253Z,31.40
2022-08-03T09:16:01.274Z,31.60
2022-08-03T09:18:32.580Z,31.70
2022-08-03T09:21:34.494Z,31.60
2022-08-03T09:24:05.367Z,31.60
2022-08-03T09:26:35.175Z,32.00
2022-08-03T09:29:14.983Z,32.00
2022-08-03T09:31:46.771Z,32.20
2022-08-03T09:34:17.793Z,32.40
2022-08-03T09:36:49.780Z,32.60
2022-08-03T09:39:40.603Z,32.80
2022-08-03T09:42:15.616Z,32.90
2022-08-03T09:44:47.742Z,33.00
2022-08-03T09:47:44.892Z,33.20
2022-08-03T09:50:12.995Z,33.30
2022-08-03T09:52:52.436Z,33.60
2022-08-03T09:56:32.995Z,33.80
2022-08-03T09:58:12.817Z,33.90
2022-08-03T10:00:55.227Z,33.70
2022-08-03T10:03:23.311Z,33.40
2022-08-03T10:05:53.837Z,33.30
2022-08-03T10:08:23.880Z,33.30
2022-08-03T10:10:56.735Z,33.60
2022-08-03T10:13:23.690Z,33.70
2022-08-03T10:16:22.287Z,33.40
2022-08-03T10:18:37.988Z,33.60
2022-08-03T10:21:10.590Z,33.70
2022-08-03T10:23:40.107Z,34.10
2022-08-03T10:26:08.381Z,34.20
2022-08-03T10:28:45.074Z,34.00
2022-08-03T10:31:14.062Z,33.60
2022-08-03T10:33:52.788Z,33.40
2022-08-03T10:36:24.702Z,33.50
2022-08-03T10:38:53.714Z,33.40
2022-08-03T10:41:23.319Z,33.40
2022-08-03T10:44:03.542Z,33.60
2022-08-03T10:46:30.451Z,33.80
2022-08-03T10:48:58.328Z,34.30
2022-08-03T10:51:30.546Z,34.90
2022-08-03T10:53:58.683Z,35.40
2022-08-03T10:56:53.434Z,35.70
2022-08-03T10:59:46.650Z,35.50
2022-08-03T11:02:15.557Z,35.20
2022-08-03T11:04:44.885Z,35.30
2022-08-03T11:07:23.532Z,35.20
2022-08-03T11:09:55.197Z,35.50
2022-08-03T11:12:31.312Z,35.80
2022-08-03T11:15:08.215Z,35.80
2022-08-03T11:17:46.238Z,36.00
2022-08-03T11:20:47.610Z,36.00
2022-08-03T11:23:16.120Z,35.70
2022-08-03T11:26:08.841Z,35.90
2022-08-03T11:28:35.884Z,35.90
2022-08-03T11:31:49.305Z,36.20
2022-08-03T11:34:17.446Z,36.40
2022-08-03T11:37:28.551Z,36.70
2022-08-03T11:39:57.233Z,37.10
2022-08-03T11:42:24.470Z,37.70
2022-08-03T11:44:52.651Z,38.00
2022-08-03T11:47:21.961Z,37.80
2022-08-03T11:49:50.003Z,37.60
2022-08-03T11:52:17.831Z,37.40
2022-08-03T11:54:45.140Z,37.40
2022-08-03T11:57:12.297Z,37.40
2022-08-03T11:59:39.397Z,37.50
2022-08-03T12:02:11.788Z,37.70
2022-08-03T12:05:00.228Z,37.80
2022-08-03T12:08:03.495Z,37.90
2022-08-03T12:10:16.387Z,37.60
2022-08-03T12:12:46.588Z,37.80
2022-08-03T12:15:13.824Z,37.90
2022-08-03T12:17:41.710Z,38.20
2022-08-03T12:20:10.245Z,38.40
2022-08-03T12:22:41.011Z,38.40
2022-08-03T12:25:09.685Z,38.40
2022-08-03T12:27:36.912Z,38.50
2022-08-03T12:30:05.156Z,38.60
2022-08-03T12:32:32.195Z,38.60
2022-08-03T12:35:01.949Z,38.50
2022-08-03T12:37:29.775Z,38.00
2022-08-03T12:40:09.763Z,37.40
2022-08-03T12:42:38.969Z,37.30
2022-08-03T12:45:20.356Z,37.50
2022-08-03T12:47:56.583Z,37.90
2022-08-03T12:50:32.964Z,37.90
2022-08-03T12:53:02.915Z,38.20
2022-08-03T12:55:57.356Z,38.50
2022-08-03T12:58:35.398Z,38.50
2022-08-03T13:01:09.677Z,38.40
2022-08-03T13:03:50.421Z,38.60
2022-08-03T13:06:24.438Z,38.80
2022-08-03T13:09:05.831Z,38.80
2022-08-03T13:11:57.899Z,38.70
2022-08-03T13:14:20.672Z,38.50
2022-08-03T13:16:49.225Z,37.50
2022-08-03T13:19:16.411Z,36.20
2022-08-03T13:22:02.542Z,36.20
2022-08-03T13:24:33.284Z,36.60
2022-08-03T13:27:00.698Z,37.10
2022-08-03T13:29:47.633Z,37.30
2022-08-03T13:32:14.538Z,37.70
2022-08-03T13:34:41.531Z,38.10
2022-08-03T13:37:09.765Z,38.50
2022-08-03T13:39:57.334Z,38.50
2022-08-03T13:42:25.322Z,38.50
2022-08-03T13:44:52.455Z,38.60
2022-08-03T13:47:20.382Z,38.30
2022-08-03T13:50:00.156Z,38.00
2022-08-03T13:52:36.231Z,37.90
2022-08-03T13:55:06.457Z,38.10
2022-08-03T13:58:03.904Z,38.50
2022-08-03T14:00:27.383Z,38.90
2022-08-03T14:03:05.357Z,39.20
2022-08-03T14:05:38.669Z,39.50
2022-08-03T14:08:07.356Z,39.40
2022-08-03T14:10:36.637Z,39.40
2022-08-03T14:13:04.372Z,39.40
2022-08-03T14:15:31.747Z,39.50
2022-08-03T14:17:59.052Z,39.60
2022-08-03T14:20:37.972Z,39.80
2022-08-03T14:23:14.367Z,39.90
2022-08-03T14:25:49.955Z,40.00
2022-08-03T14:28:23.132Z,40.00
2022-08-03T14:30:51.703Z,39.40
2022-08-03T14:33:18.828Z,39.00
2022-08-03T14:35:46.084Z,38.80
2022-08-03T14:38:13.097Z,38.40
2022-08-03T14:40:40.070Z,38.30
2022-08-03T14:43:07.110Z,38.20
2022-08-03T14:45:34.455Z,37.70
2022-08-03T14:50:33.076Z,37.40
2022-08-03T14:50:51.281Z,37.20
2022-08-03T14:53:19.433Z,36.80
2022-08-03T14:55:49.925Z,36.70
2022-08-03T14:58:20.731Z,36.70
2022-08-03T15:00:48.867Z,37.00
2022-08-03T15:03:17.674Z,37.40
2022-08-03T15:05:45.193Z,37.50
2022-08-03T15:08:12.567Z,37.80
2022-08-03T15:10:43.747Z,38.00
2022-08-03T15:13:13.208Z,38.00
2022-08-03T15:15:41.275Z,38.30
2022-08-03T15:18:08.579Z,38.40
2022-08-03T15:20:51.065Z,38.20
2022-08-03T15:23:18.917Z,37.70
2022-08-03T15:26:03.908Z,37.50
2022-08-03T15:28:34.257Z,37.40
2022-08-03T15:31:04.809Z,37.30
2022-08-03T15:33:31.809Z,37.50
2022-08-03T15:36:00.055Z,37.70
2022-08-03T15:38:27.201Z,37.80
2022-08-03T15:40:55.344Z,37.90
2022-08-03T15:43:23.512Z,37.90
2022-08-03T15:46:19.069Z,37.80
2022-08-03T15:48:37.917Z,38.10
2022-08-03T15:51:05.854Z,38.50
2022-08-03T15:53:33.604Z,38.50
2022-08-03T15:56:01.089Z,38.40
2022-08-03T15:59:03.758Z,38.40
2022-08-03T16:01:19.743Z,38.30
2022-08-03T16:03:47.433Z,37.90
2022-08-03T16:06:14.399Z,37.60
2022-08-03T16:08:41.561Z,37.50
2022-08-03T16:11:08.526Z,37.50
2022-08-03T16:14:13.797Z,37.40
2022-08-03T16:16:22.314Z,37.20
2022-08-03T16:18:49.502Z,37.20
2022-08-03T16:21:19.508Z,37.30
2022-08-03T16:23:48.843Z,37.50
2022-08-03T16:26:15.846Z,37.70
2022-08-03T16:28:42.682Z,37.90
2022-08-03T16:31:09.848Z,37.70
2022-08-03T16:33:36.757Z,37.70
2022-08-03T16:36:03.946Z,37.60
2022-08-03T16:38:31.287Z,37.50
2022-08-03T16:40:58.501Z,37.40
2022-08-03T16:43:25.537Z,37.50
2022-08-03T16:45:52.647Z,37.60
2022-08-03T16:48:19.830Z,37.70
2022-08-03T16:50:47.504Z,37.60
2022-08-03T16:53:16.594Z,37.40
2022-08-03T16:55:52.292Z,37.20
2022-08-03T16:58:34.522Z,37.30
2022-08-03T17:01:22.177Z,37.30
2022-08-03T17:04:02.311Z,37.00
2022-08-03T17:06:35.292Z,36.80
2022-08-03T17:09:09.088Z,36.90
2022-08-03T17:11:44.087Z,37.00
2022-08-03T17:14:15.087Z,36.80
2022-08-03T17:16:52.750Z,36.80
2022-08-03T17:19:26.360Z,36.80
2022-08-03T17:22:18.629Z,36.70
2022-08-03T17:24:49.976Z,36.70
2022-08-03T17:28:50.947Z,36.50
2022-08-03T17:30:10.547Z,36.20
2022-08-03T17:32:52.455Z,36.00
2022-08-03T17:35:24.150Z,36.00
2022-08-03T17:38:03.760Z,35.90
2022-08-03T17:40:32.174Z,35.70
2022-08-03T17:43:00.801Z,35.50
2022-08-03T17:45:42.268Z,35.40
2022-08-03T17:48:18.558Z,35.30
2022-08-03T17:50:56.118Z,35.00
2022-08-03T17:53:36.601Z,34.80
2022-08-03T17:56:40.837Z,34.70
2022-08-03T17:59:51.324Z,34.70
2022-08-03T18:03:07.587Z,34.50
2022-08-03T18:06:11.022Z,34.40
2022-08-03T18:08:33.747Z,34.30
2022-08-03T18:11:14.254Z,34.20
2022-08-03T18:13:58.441Z,34.10
2022-08-03T18:16:34.660Z,33.90
2022-08-03T18:19:09.580Z,33.80
2022-08-03T18:22:03.741Z,33.70
2022-08-03T18:24:30.523Z,33.50
2022-08-03T18:26:59.151Z,33.40
2022-08-03T18:29:30.027Z,33.10
2022-08-03T18:32:02.924Z,32.90
2022-08-03T18:34:34.231Z,32.80
2022-08-03T18:37:04.391Z,32.50
2022-08-03T18:39:49.696Z,32.20
2022-08-03T18:45:14.912Z,31.70
2022-08-03T18:47:55.939Z,31.60
2022-08-03T18:50:41.019Z,31.40
2022-08-03T18:54:04.038Z,31.20
2022-08-03T18:56:42.651Z,31.10
2022-08-03T18:59:30.805Z,30.90
2022-08-03T19:02:05.780Z,30.80
2022-08-03T19:04:45.182Z,30.60
2022-08-03T19:07:27.527Z,30.40
2022-08-03T19:10:10.889Z,30.30
2022-08-03T19:12:53.046Z,30.20
2022-08-03T19:15:36.392Z,30.00
2022-08-03T19:18:08.785Z,29.90
2022-08-03T19:20:38.106Z,29.80
2022-08-03T19:23:06.464Z,29.70
2022-08-03T19:25:39.435Z,29.70
2022-08-03T19:28:08.835Z,29.60
2022-08-03T19:30:40.125Z,29.60
2022-08-03T19:33:12.629Z,29.40
2022-08-03T19:35:55.022Z,29.40
2022-08-03T19:38:28.531Z,29.30
2022-08-03T19:41:00.794Z,29.10
2022-08-03T19:46:31.525Z,29.00
2022-08-03T19:52:03.014Z,28.80
2022-08-03T19:54:45.881Z,28.70
2022-08-03T19:57:27.024Z,28.50
2022-08-03T19:59:55.199Z,28.40
2022-08-03T20:02:27.310Z,28.30
2022-08-03T20:04:57.063Z,28.10
2022-08-03T20:07:25.699Z,28.00
2022-08-03T20:09:56.435Z,28.00
2022-08-03T20:12:28.223Z,27.90
2022-08-03T20:14:57.376Z,27.80
2022-08-03T20:17:54.057Z,27.80
2022-08-03T20:20:11.754Z,27.70
2022-08-03T20:22:48.183Z,27.60
2022-08-03T20:25:21.077Z,27.50
2022-08-03T20:28:07.218Z,27.40
2022-08-03T20:30:38.526Z,27.30
2022-08-03T20:33:09.690Z,27.20
2022-08-03T20:35:36.724Z,27.10
2022-08-03T20:38:03.938Z,27.10
2022-08-03T20:40:32.215Z,27.10
2022-08-03T20:42:59.819Z,27.00
2022-08-03T20:45:59.234Z,26.90
2022-08-03T20:48:17.569Z,26.80
2022-08-03T20:50:49.686Z,26.70
2022-08-03T20:53:57.491Z,26.70
2022-08-03T20:56:05.287Z,26.80
2022-08-03T20:58:36.548Z,26.70
2022-08-03T21:01:03.754Z,26.60
2022-08-03T21:03:41.046Z,26.60
2022-08-03T21:06:27.398Z,26.50
2022-08-03T21:09:04.096Z,26.40
2022-08-03T21:11:49.018Z,26.20
2022-08-03T21:12:58.870Z,32.00
2022-08-03T21:13:09.434Z,29.10
2022-08-03T21:13:09.560Z,28.80
2022-08-03T21:14:26.035Z,26.20
2022-08-03T21:16:53.615Z,26.10
2022-08-03T21:19:22.308Z,26.00
2022-08-03T21:21:50.257Z,25.90
2022-08-03T21:24:19.749Z,25.80
2022-08-03T21:26:48.579Z,25.80
2022-08-03T21:29:16.818Z,25.70
2022-08-03T21:31:44.145Z,25.50
2022-08-03T21:34:11.309Z,25.40
2022-08-03T21:36:38.436Z,25.30
2022-08-03T21:39:08.259Z,25.20
2022-08-03T21:41:37.448Z,25.10
2022-08-03T21:44:05.993Z,25.10
2022-08-03T21:46:39.193Z,25.10
2022-08-03T21:49:52.043Z,25.00
2022-08-03T21:52:02.866Z,25.00
2022-08-03T21:54:35.546Z,25.00
2022-08-03T21:57:05.650Z,24.90
2022-08-03T21:59:37.320Z,24.90
2022-08-03T22:02:05.102Z,24.80
2022-08-03T22:04:55.137Z,24.80
2022-08-03T22:07:29.036Z,24.70
2022-08-03T22:09:59.564Z,24.60
2022-08-03T22:12:29.536Z,24.50
2022-08-03T22:15:01.430Z,24.40
2022-08-03T22:17:56.213Z,24.40
2022-08-03T22:20:21.058Z,24.30
2022-08-03T22:22:55.018Z,24.30
2022-08-03T22:25:29.179Z,24.20
2022-08-03T22:28:01.819Z,24.10
2022-08-03T22:30:29.276Z,24.10
2022-08-03T22:32:57.443Z,24.10
2022-08-03T22:35:26.151Z,24.10
2022-08-03T22:37:55.398Z,24.20
2022-08-03T22:40:22.663Z,24.10
2022-08-03T22:42:52.137Z,24.10
2022-08-03T22:46:06.845Z,24.10
2022-08-03T22:48:08.392Z,24.10
2022-08-03T22:50:35.933Z,24.20
2022-08-03T22:53:03.336Z,24.30
2022-08-03T22:55:30.258Z,24.40
2022-08-03T22:57:57.210Z,24.50
2022-08-03T23:00:24.997Z,24.60
2022-08-03T23:02:54.785Z,24.60
2022-08-03T23:06:01.436Z,24.70
2022-08-03T23:08:15.121Z,24.70
2022-08-03T23:10:46.834Z,24.60
2022-08-03T23:13:17.242Z,24.50
2022-08-03T23:15:51.629Z,24.50
2022-08-03T23:18:20.873Z,24.30
2022-08-03T23:20:51.590Z,24.20
2022-08-03T23:23:20.612Z,24.10
2022-08-03T23:25:49.500Z,24.00
2022-08-03T23:28:17.265Z,23.90
2022-08-03T23:30:50.406Z,23.80
2022-08-03T23:33:18.724Z,23.70
2022-08-03T23:36:29.554Z,23.60
2022-08-03T23:38:46.096Z,23.50
2022-08-03T23:41:14.848Z,23.40
2022-08-03T23:43:50.722Z,23.30
2022-08-03T23:46:24.330Z,23.20
2022-08-03T23:48:51.540Z,23.10
2022-08-03T23:51:39.177Z,23.00
2022-08-03T23:54:24.069Z,22.90
2022-08-03T23:56:55.154Z,22.80
2022-08-03T23:59:48.835Z,22.70
